sensor_id;sensor_type;location;lat;lon;timestamp;P1;durP1;ratioP1;P2;durP2;ratioP2
11187;SDS011;5650;52.700;7.306;2022-10-16T00:00:09;9.60;;;3.47;;
11187;SDS011;5650;52.700;7.306;2022-10-16T00:02:37;5.90;;;2.70;;
11187;SDS011;5650;52.700;7.306;2022-10-16T00:05:04;8.65;;;3.03;;
11187;SDS011;5650;52.700;7.306;2022-10-16T00:07:34;8.73;;;3.15;;
11187;SDS011;5650;52.700;7.306;2022-10-16T00:10:03;8.27;;;3.10;;
11187;SDS011;5650;52.700;7.306;2022-10-16T00:12:33;10.68;;;3.53;;
11187;SDS011;5650;52.700;7.306;2022-10-16T00:15:06;10.00;;;3.13;;
11187;SDS011;5650;52.700;7.306;2022-10-16T00:17:36;6.75;;;2.63;;
11187;SDS011;5650;52.700;7.306;2022-10-16T00:20:04;8.10;;;2.95;;
11187;SDS011;5650;52.700;7.306;2022-10-16T00:22:40;5.38;;;2.65;;
11187;SDS011;5650;52.700;7.306;2022-10-16T00:25:11;9.32;;;3.00;;
11187;SDS011;5650;52.700;7.306;2022-10-16T00:27:44;9.68;;;3.30;;
11187;SDS011;5650;52.700;7.306;2022-10-16T00:30:14;6.22;;;2.40;;
11187;SDS011;5650;52.700;7.306;2022-10-16T00:32:41;10.32;;;2.78;;
11187;SDS011;5650;52.700;7.306;2022-10-16T00:35:08;8.43;;;2.72;;
11187;SDS011;5650;52.700;7.306;2022-10-16T00:37:36;10.25;;;2.78;;
11187;SDS011;5650;52.700;7.306;2022-10-16T00:40:03;7.07;;;2.35;;
11187;SDS011;5650;52.700;7.306;2022-10-16T00:42:32;5.43;;;2.55;;
11187;SDS011;5650;52.700;7.306;2022-10-16T00:44:59;8.50;;;2.65;;
11187;SDS011;5650;52.700;7.306;2022-10-16T00:47:30;6.57;;;2.92;;
11187;SDS011;5650;52.700;7.306;2022-10-16T00:50:13;6.32;;;2.78;;
11187;SDS011;5650;52.700;7.306;2022-10-16T00:52:51;5.43;;;2.45;;
11187;SDS011;5650;52.700;7.306;2022-10-16T00:55:20;13.02;;;2.65;;
11187;SDS011;5650;52.700;7.306;2022-10-16T00:57:54;5.50;;;2.05;;
11187;SDS011;5650;52.700;7.306;2022-10-16T01:00:25;5.95;;;1.88;;
11187;SDS011;5650;52.700;7.306;2022-10-16T01:02:53;11.20;;;2.53;;
11187;SDS011;5650;52.700;7.306;2022-10-16T01:05:23;6.20;;;2.20;;
11187;SDS011;5650;52.700;7.306;2022-10-16T01:08:01;6.78;;;2.13;;
11187;SDS011;5650;52.700;7.306;2022-10-16T01:10:36;9.30;;;1.95;;
11187;SDS011;5650;52.700;7.306;2022-10-16T01:13:14;8.02;;;1.83;;
11187;SDS011;5650;52.700;7.306;2022-10-16T01:15:48;5.65;;;1.90;;
11187;SDS011;5650;52.700;7.306;2022-10-16T01:18:34;4.93;;;1.77;;
11187;SDS011;5650;52.700;7.306;2022-10-16T01:21:05;5.13;;;1.98;;
11187;SDS011;5650;52.700;7.306;2022-10-16T01:23:41;4.47;;;1.40;;
11187;SDS011;5650;52.700;7.306;2022-10-16T01:26:19;6.05;;;1.83;;
11187;SDS011;5650;52.700;7.306;2022-10-16T01:28:55;7.10;;;1.75;;
11187;SDS011;5650;52.700;7.306;2022-10-16T01:31:28;7.80;;;2.15;;
11187;SDS011;5650;52.700;7.306;2022-10-16T01:34:00;4.95;;;2.00;;
11187;SDS011;5650;52.700;7.306;2022-10-16T01:36:31;6.40;;;1.90;;
11187;SDS011;5650;52.700;7.306;2022-10-16T01:39:06;5.20;;;1.73;;
11187;SDS011;5650;52.700;7.306;2022-10-16T01:41:41;4.78;;;1.67;;
11187;SDS011;5650;52.700;7.306;2022-10-16T01:44:17;5.20;;;1.75;;
11187;SDS011;5650;52.700;7.306;2022-10-16T01:46:48;5.20;;;2.00;;
11187;SDS011;5650;52.700;7.306;2022-10-16T01:49:24;6.80;;;1.95;;
11187;SDS011;5650;52.700;7.306;2022-10-16T01:51:55;6.47;;;2.05;;
11187;SDS011;5650;52.700;7.306;2022-10-16T01:54:26;3.00;;;1.60;;
11187;SDS011;5650;52.700;7.306;2022-10-16T01:56:55;5.25;;;1.70;;
11187;SDS011;5650;52.700;7.306;2022-10-16T01:59:40;8.95;;;2.10;;
11187;SDS011;5650;52.700;7.306;2022-10-16T02:02:17;6.32;;;1.95;;
11187;SDS011;5650;52.700;7.306;2022-10-16T02:04:47;4.38;;;1.60;;
11187;SDS011;5650;52.700;7.306;2022-10-16T02:07:17;6.95;;;2.00;;
11187;SDS011;5650;52.700;7.306;2022-10-16T02:09:44;10.35;;;2.05;;
11187;SDS011;5650;52.700;7.306;2022-10-16T02:12:15;4.75;;;1.70;;
11187;SDS011;5650;52.700;7.306;2022-10-16T02:14:51;5.72;;;1.88;;
11187;SDS011;5650;52.700;7.306;2022-10-16T02:17:18;4.53;;;1.80;;
11187;SDS011;5650;52.700;7.306;2022-10-16T02:19:47;6.63;;;1.83;;
11187;SDS011;5650;52.700;7.306;2022-10-16T02:22:17;5.13;;;1.52;;
11187;SDS011;5650;52.700;7.306;2022-10-16T02:24:50;5.10;;;1.88;;
11187;SDS011;5650;52.700;7.306;2022-10-16T02:27:25;7.22;;;1.70;;
11187;SDS011;5650;52.700;7.306;2022-10-16T02:30:13;8.60;;;1.77;;
11187;SDS011;5650;52.700;7.306;2022-10-16T02:32:44;5.50;;;1.80;;
11187;SDS011;5650;52.700;7.306;2022-10-16T02:35:17;5.70;;;1.42;;
11187;SDS011;5650;52.700;7.306;2022-10-16T02:37:46;7.07;;;1.60;;
11187;SDS011;5650;52.700;7.306;2022-10-16T02:40:18;6.10;;;1.83;;
11187;SDS011;5650;52.700;7.306;2022-10-16T02:42:51;6.35;;;1.95;;
11187;SDS011;5650;52.700;7.306;2022-10-16T02:45:22;4.07;;;1.70;;
11187;SDS011;5650;52.700;7.306;2022-10-16T02:47:49;5.43;;;2.10;;
11187;SDS011;5650;52.700;7.306;2022-10-16T02:50:17;9.13;;;2.40;;
11187;SDS011;5650;52.700;7.306;2022-10-16T02:52:47;9.45;;;2.35;;
11187;SDS011;5650;52.700;7.306;2022-10-16T02:55:22;6.40;;;1.90;;
11187;SDS011;5650;52.700;7.306;2022-10-16T02:57:58;3.83;;;2.15;;
11187;SDS011;5650;52.700;7.306;2022-10-16T03:00:42;9.20;;;2.30;;
11187;SDS011;5650;52.700;7.306;2022-10-16T03:03:12;6.20;;;2.42;;
11187;SDS011;5650;52.700;7.306;2022-10-16T03:05:43;5.53;;;2.03;;
11187;SDS011;5650;52.700;7.306;2022-10-16T03:08:10;5.65;;;2.10;;
11187;SDS011;5650;52.700;7.306;2022-10-16T03:10:38;6.95;;;2.30;;
11187;SDS011;5650;52.700;7.306;2022-10-16T03:13:07;7.25;;;2.22;;
11187;SDS011;5650;52.700;7.306;2022-10-16T03:15:37;6.65;;;2.33;;
11187;SDS011;5650;52.700;7.306;2022-10-16T03:18:11;8.70;;;2.58;;
11187;SDS011;5650;52.700;7.306;2022-10-16T03:20:38;3.90;;;2.55;;
11187;SDS011;5650;52.700;7.306;2022-10-16T03:23:05;4.25;;;2.22;;
11187;SDS011;5650;52.700;7.306;2022-10-16T03:25:36;6.28;;;2.42;;
11187;SDS011;5650;52.700;7.306;2022-10-16T03:28:06;7.55;;;2.40;;
11187;SDS011;5650;52.700;7.306;2022-10-16T03:30:40;4.95;;;2.67;;
11187;SDS011;5650;52.700;7.306;2022-10-16T03:33:14;7.70;;;2.78;;
11187;SDS011;5650;52.700;7.306;2022-10-16T03:35:41;6.53;;;2.88;;
11187;SDS011;5650;52.700;7.306;2022-10-16T03:38:08;6.28;;;2.70;;
11187;SDS011;5650;52.700;7.306;2022-10-16T03:40:41;5.65;;;2.85;;
11187;SDS011;5650;52.700;7.306;2022-10-16T03:43:11;4.75;;;2.92;;
11187;SDS011;5650;52.700;7.306;2022-10-16T03:45:38;6.50;;;3.10;;
11187;SDS011;5650;52.700;7.306;2022-10-16T03:48:05;7.85;;;3.20;;
11187;SDS011;5650;52.700;7.306;2022-10-16T03:50:37;5.00;;;3.05;;
11187;SDS011;5650;52.700;7.306;2022-10-16T03:53:07;7.45;;;3.13;;
11187;SDS011;5650;52.700;7.306;2022-10-16T03:55:42;6.10;;;3.20;;
11187;SDS011;5650;52.700;7.306;2022-10-16T03:58:10;5.53;;;2.85;;
11187;SDS011;5650;52.700;7.306;2022-10-16T04:00:41;10.32;;;3.50;;
11187;SDS011;5650;52.700;7.306;2022-10-16T04:03:11;8.23;;;2.90;;
11187;SDS011;5650;52.700;7.306;2022-10-16T04:05:43;10.73;;;3.75;;
11187;SDS011;5650;52.700;7.306;2022-10-16T04:08:13;4.13;;;3.15;;
11187;SDS011;5650;52.700;7.306;2022-10-16T04:10:43;14.57;;;3.55;;
11187;SDS011;5650;52.700;7.306;2022-10-16T04:13:10;7.53;;;3.13;;
11187;SDS011;5650;52.700;7.306;2022-10-16T04:15:38;9.25;;;3.38;;
11187;SDS011;5650;52.700;7.306;2022-10-16T04:18:15;8.98;;;3.50;;
11187;SDS011;5650;52.700;7.306;2022-10-16T04:20:47;7.30;;;3.53;;
11187;SDS011;5650;52.700;7.306;2022-10-16T04:23:14;8.43;;;3.47;;
11187;SDS011;5650;52.700;7.306;2022-10-16T04:25:49;8.30;;;3.53;;
11187;SDS011;5650;52.700;7.306;2022-10-16T04:28:16;4.95;;;2.90;;
11187;SDS011;5650;52.700;7.306;2022-10-16T04:30:44;6.13;;;3.05;;
11187;SDS011;5650;52.700;7.306;2022-10-16T04:33:11;8.07;;;3.15;;
11187;SDS011;5650;52.700;7.306;2022-10-16T04:35:40;5.68;;;3.30;;
11187;SDS011;5650;52.700;7.306;2022-10-16T04:38:10;7.32;;;3.55;;
11187;SDS011;5650;52.700;7.306;2022-10-16T04:40:37;6.30;;;3.17;;
11187;SDS011;5650;52.700;7.306;2022-10-16T04:43:10;6.88;;;3.15;;
11187;SDS011;5650;52.700;7.306;2022-10-16T04:45:47;4.57;;;3.30;;
11187;SDS011;5650;52.700;7.306;2022-10-16T04:48:15;5.22;;;3.42;;
11187;SDS011;5650;52.700;7.306;2022-10-16T04:50:42;8.30;;;3.33;;
11187;SDS011;5650;52.700;7.306;2022-10-16T04:53:12;4.65;;;3.22;;
11187;SDS011;5650;52.700;7.306;2022-10-16T04:55:42;6.80;;;3.00;;
11187;SDS011;5650;52.700;7.306;2022-10-16T04:58:12;8.25;;;4.13;;
11187;SDS011;5650;52.700;7.306;2022-10-16T05:00:39;7.50;;;3.58;;
11187;SDS011;5650;52.700;7.306;2022-10-16T05:03:06;7.13;;;2.80;;
11187;SDS011;5650;52.700;7.306;2022-10-16T05:05:42;9.40;;;3.70;;
11187;SDS011;5650;52.700;7.306;2022-10-16T05:08:12;6.63;;;3.05;;
11187;SDS011;5650;52.700;7.306;2022-10-16T05:10:43;4.05;;;3.03;;
11187;SDS011;5650;52.700;7.306;2022-10-16T05:13:11;4.80;;;3.25;;
11187;SDS011;5650;52.700;7.306;2022-10-16T05:15:41;5.57;;;3.17;;
11187;SDS011;5650;52.700;7.306;2022-10-16T05:18:08;3.85;;;2.97;;
11187;SDS011;5650;52.700;7.306;2022-10-16T05:20:41;4.10;;;3.03;;
11187;SDS011;5650;52.700;7.306;2022-10-16T05:23:08;8.05;;;3.30;;
11187;SDS011;5650;52.700;7.306;2022-10-16T05:25:54;6.68;;;2.90;;
11187;SDS011;5650;52.700;7.306;2022-10-16T05:28:38;5.22;;;2.70;;
11187;SDS011;5650;52.700;7.306;2022-10-16T05:31:05;5.93;;;3.00;;
11187;SDS011;5650;52.700;7.306;2022-10-16T05:33:32;4.28;;;2.83;;
11187;SDS011;5650;52.700;7.306;2022-10-16T05:36:03;5.97;;;2.92;;
11187;SDS011;5650;52.700;7.306;2022-10-16T05:38:37;7.95;;;2.95;;
11187;SDS011;5650;52.700;7.306;2022-10-16T05:41:05;5.13;;;2.85;;
11187;SDS011;5650;52.700;7.306;2022-10-16T05:43:32;7.55;;;2.72;;
11187;SDS011;5650;52.700;7.306;2022-10-16T05:46:06;4.13;;;3.00;;
11187;SDS011;5650;52.700;7.306;2022-10-16T05:48:36;7.68;;;3.53;;
11187;SDS011;5650;52.700;7.306;2022-10-16T05:51:04;4.20;;;3.08;;
11187;SDS011;5650;52.700;7.306;2022-10-16T05:53:46;8.57;;;2.95;;
11187;SDS011;5650;52.700;7.306;2022-10-16T05:56:13;9.80;;;3.22;;
11187;SDS011;5650;52.700;7.306;2022-10-16T05:58:40;3.90;;;2.80;;
11187;SDS011;5650;52.700;7.306;2022-10-16T06:01:10;4.80;;;2.88;;
11187;SDS011;5650;52.700;7.306;2022-10-16T06:03:44;8.30;;;2.90;;
11187;SDS011;5650;52.700;7.306;2022-10-16T06:06:11;5.68;;;2.92;;
11187;SDS011;5650;52.700;7.306;2022-10-16T06:08:39;5.55;;;2.97;;
11187;SDS011;5650;52.700;7.306;2022-10-16T06:13:39;4.97;;;3.25;;
11187;SDS011;5650;52.700;7.306;2022-10-16T06:16:08;3.67;;;2.88;;
11187;SDS011;5650;52.700;7.306;2022-10-16T06:18:42;3.25;;;2.85;;
11187;SDS011;5650;52.700;7.306;2022-10-16T06:21:10;6.18;;;2.90;;
11187;SDS011;5650;52.700;7.306;2022-10-16T06:23:41;6.25;;;2.85;;
11187;SDS011;5650;52.700;7.306;2022-10-16T06:26:14;4.53;;;2.95;;
11187;SDS011;5650;52.700;7.306;2022-10-16T06:28:50;5.82;;;2.90;;
11187;SDS011;5650;52.700;7.306;2022-10-16T06:31:17;4.25;;;2.40;;
11187;SDS011;5650;52.700;7.306;2022-10-16T06:33:50;5.45;;;2.60;;
11187;SDS011;5650;52.700;7.306;2022-10-16T06:36:17;8.73;;;2.60;;
11187;SDS011;5650;52.700;7.306;2022-10-16T06:38:45;3.33;;;2.63;;
11187;SDS011;5650;52.700;7.306;2022-10-16T06:41:13;6.32;;;2.60;;
11187;SDS011;5650;52.700;7.306;2022-10-16T06:43:42;4.30;;;2.72;;
11187;SDS011;5650;52.700;7.306;2022-10-16T06:46:15;10.52;;;2.40;;
11187;SDS011;5650;52.700;7.306;2022-10-16T06:48:44;3.08;;;2.30;;
11187;SDS011;5650;52.700;7.306;2022-10-16T06:51:11;6.60;;;2.70;;
11187;SDS011;5650;52.700;7.306;2022-10-16T06:53:41;9.35;;;2.70;;
11187;SDS011;5650;52.700;7.306;2022-10-16T06:56:09;3.28;;;2.28;;
11187;SDS011;5650;52.700;7.306;2022-10-16T06:58:38;5.22;;;2.65;;
11187;SDS011;5650;52.700;7.306;2022-10-16T07:01:09;8.27;;;2.90;;
11187;SDS011;5650;52.700;7.306;2022-10-16T07:03:42;4.75;;;2.28;;
11187;SDS011;5650;52.700;7.306;2022-10-16T07:06:11;9.07;;;2.50;;
11187;SDS011;5650;52.700;7.306;2022-10-16T07:08:43;5.40;;;2.08;;
11187;SDS011;5650;52.700;7.306;2022-10-16T07:11:12;4.65;;;2.30;;
11187;SDS011;5650;52.700;7.306;2022-10-16T07:13:40;4.22;;;2.20;;
11187;SDS011;5650;52.700;7.306;2022-10-16T07:16:09;3.30;;;1.92;;
11187;SDS011;5650;52.700;7.306;2022-10-16T07:18:42;5.43;;;2.30;;
11187;SDS011;5650;52.700;7.306;2022-10-16T07:21:11;3.30;;;2.30;;
11187;SDS011;5650;52.700;7.306;2022-10-16T07:23:42;6.50;;;2.55;;
11187;SDS011;5650;52.700;7.306;2022-10-16T07:26:16;6.07;;;2.17;;
11187;SDS011;5650;52.700;7.306;2022-10-16T07:28:43;6.32;;;2.10;;
11187;SDS011;5650;52.700;7.306;2022-10-16T07:31:11;5.57;;;2.00;;
11187;SDS011;5650;52.700;7.306;2022-10-16T07:33:40;4.90;;;2.38;;
11187;SDS011;5650;52.700;7.306;2022-10-16T07:36:13;5.43;;;2.35;;
11187;SDS011;5650;52.700;7.306;2022-10-16T07:38:40;6.47;;;2.40;;
11187;SDS011;5650;52.700;7.306;2022-10-16T07:41:11;9.27;;;2.35;;
11187;SDS011;5650;52.700;7.306;2022-10-16T07:43:45;4.93;;;2.25;;
11187;SDS011;5650;52.700;7.306;2022-10-16T07:46:18;4.40;;;1.90;;
11187;SDS011;5650;52.700;7.306;2022-10-16T07:48:58;4.70;;;2.22;;
11187;SDS011;5650;52.700;7.306;2022-10-16T07:51:25;6.28;;;2.22;;
11187;SDS011;5650;52.700;7.306;2022-10-16T07:53:53;7.82;;;2.20;;
11187;SDS011;5650;52.700;7.306;2022-10-16T07:56:20;5.57;;;2.03;;
11187;SDS011;5650;52.700;7.306;2022-10-16T07:58:51;8.20;;;2.03;;
11187;SDS011;5650;52.700;7.306;2022-10-16T08:01:21;5.70;;;2.10;;
11187;SDS011;5650;52.700;7.306;2022-10-16T08:04:01;4.03;;;1.88;;
11187;SDS011;5650;52.700;7.306;2022-10-16T08:06:28;5.13;;;2.05;;
11187;SDS011;5650;52.700;7.306;2022-10-16T08:09:00;7.18;;;2.70;;
11187;SDS011;5650;52.700;7.306;2022-10-16T08:11:37;5.47;;;2.17;;
11187;SDS011;5650;52.700;7.306;2022-10-16T08:14:07;5.65;;;2.10;;
11187;SDS011;5650;52.700;7.306;2022-10-16T08:16:40;2.28;;;1.50;;
11187;SDS011;5650;52.700;7.306;2022-10-16T08:19:14;5.47;;;1.80;;
11187;SDS011;5650;52.700;7.306;2022-10-16T08:21:41;3.88;;;1.65;;
11187;SDS011;5650;52.700;7.306;2022-10-16T08:24:08;3.35;;;1.60;;
11187;SDS011;5650;52.700;7.306;2022-10-16T08:26:38;4.03;;;1.55;;
11187;SDS011;5650;52.700;7.306;2022-10-16T08:29:06;4.82;;;1.70;;
11187;SDS011;5650;52.700;7.306;2022-10-16T08:31:33;3.90;;;1.90;;
11187;SDS011;5650;52.700;7.306;2022-10-16T08:34:06;5.15;;;1.95;;
11187;SDS011;5650;52.700;7.306;2022-10-16T08:36:35;7.45;;;1.77;;
11187;SDS011;5650;52.700;7.306;2022-10-16T08:39:02;8.32;;;2.90;;
11187;SDS011;5650;52.700;7.306;2022-10-16T08:44:56;6.90;;;2.17;;
11187;SDS011;5650;52.700;7.306;2022-10-16T08:47:58;4.35;;;2.15;;
11187;SDS011;5650;52.700;7.306;2022-10-16T08:50:32;5.07;;;1.70;;
11187;SDS011;5650;52.700;7.306;2022-10-16T08:53:12;4.15;;;1.75;;
11187;SDS011;5650;52.700;7.306;2022-10-16T08:55:48;6.13;;;1.80;;
11187;SDS011;5650;52.700;7.306;2022-10-16T08:58:18;9.63;;;1.83;;
11187;SDS011;5650;52.700;7.306;2022-10-16T09:00:49;5.03;;;1.77;;
11187;SDS011;5650;52.700;7.306;2022-10-16T09:03:48;6.65;;;1.73;;
11187;SDS011;5650;52.700;7.306;2022-10-16T09:06:40;4.25;;;1.88;;
11187;SDS011;5650;52.700;7.306;2022-10-16T09:09:23;7.68;;;1.80;;
11187;SDS011;5650;52.700;7.306;2022-10-16T09:12:11;6.80;;;1.75;;
11187;SDS011;5650;52.700;7.306;2022-10-16T09:14:47;7.53;;;1.58;;
11187;SDS011;5650;52.700;7.306;2022-10-16T09:17:27;4.30;;;1.70;;
11187;SDS011;5650;52.700;7.306;2022-10-16T09:20:16;8.07;;;2.17;;
11187;SDS011;5650;52.700;7.306;2022-10-16T09:23:08;3.97;;;2.40;;
11187;SDS011;5650;52.700;7.306;2022-10-16T09:25:42;4.07;;;1.67;;
11187;SDS011;5650;52.700;7.306;2022-10-16T09:28:12;5.70;;;2.40;;
11187;SDS011;5650;52.700;7.306;2022-10-16T09:30:42;4.45;;;1.63;;
11187;SDS011;5650;52.700;7.306;2022-10-16T09:33:10;7.32;;;1.67;;
11187;SDS011;5650;52.700;7.306;2022-10-16T09:35:50;4.47;;;1.73;;
11187;SDS011;5650;52.700;7.306;2022-10-16T09:38:23;5.45;;;1.50;;
11187;SDS011;5650;52.700;7.306;2022-10-16T09:40:57;6.25;;;1.65;;
11187;SDS011;5650;52.700;7.306;2022-10-16T09:43:26;3.25;;;1.60;;
11187;SDS011;5650;52.700;7.306;2022-10-16T09:45:59;7.53;;;1.90;;
11187;SDS011;5650;52.700;7.306;2022-10-16T09:48:30;4.03;;;1.70;;
11187;SDS011;5650;52.700;7.306;2022-10-16T09:51:13;6.20;;;1.98;;
11187;SDS011;5650;52.700;7.306;2022-10-16T09:53:45;8.43;;;2.10;;
11187;SDS011;5650;52.700;7.306;2022-10-16T09:56:22;7.45;;;2.30;;
11187;SDS011;5650;52.700;7.306;2022-10-16T09:58:50;7.45;;;1.55;;
11187;SDS011;5650;52.700;7.306;2022-10-16T10:01:22;4.60;;;1.70;;
11187;SDS011;5650;52.700;7.306;2022-10-16T10:03:55;5.38;;;1.73;;
11187;SDS011;5650;52.700;7.306;2022-10-16T10:06:29;8.82;;;2.58;;
11187;SDS011;5650;52.700;7.306;2022-10-16T10:09:04;6.20;;;1.80;;
11187;SDS011;5650;52.700;7.306;2022-10-16T10:11:41;6.43;;;1.65;;
11187;SDS011;5650;52.700;7.306;2022-10-16T10:14:19;7.93;;;2.03;;
11187;SDS011;5650;52.700;7.306;2022-10-16T10:17:12;7.07;;;2.00;;
11187;SDS011;5650;52.700;7.306;2022-10-16T10:19:42;7.80;;;2.10;;
11187;SDS011;5650;52.700;7.306;2022-10-16T10:22:25;6.28;;;1.75;;
11187;SDS011;5650;52.700;7.306;2022-10-16T10:24:56;7.45;;;1.88;;
11187;SDS011;5650;52.700;7.306;2022-10-16T10:27:45;7.43;;;1.80;;
11187;SDS011;5650;52.700;7.306;2022-10-16T10:30:47;6.05;;;2.00;;
11187;SDS011;5650;52.700;7.306;2022-10-16T10:33:28;5.10;;;1.80;;
11187;SDS011;5650;52.700;7.306;2022-10-16T10:36:07;7.97;;;1.95;;
11187;SDS011;5650;52.700;7.306;2022-10-16T10:38:43;7.95;;;2.00;;
11187;SDS011;5650;52.700;7.306;2022-10-16T10:44:21;7.53;;;2.30;;
11187;SDS011;5650;52.700;7.306;2022-10-16T10:47:01;9.65;;;2.10;;
11187;SDS011;5650;52.700;7.306;2022-10-16T10:49:44;8.00;;;1.90;;
11187;SDS011;5650;52.700;7.306;2022-10-16T10:52:33;7.97;;;2.45;;
11187;SDS011;5650;52.700;7.306;2022-10-16T10:55:19;8.93;;;1.90;;
11187;SDS011;5650;52.700;7.306;2022-10-16T10:57:58;10.48;;;2.08;;
11187;SDS011;5650;52.700;7.306;2022-10-16T11:01:00;6.35;;;1.90;;
11187;SDS011;5650;52.700;7.306;2022-10-16T11:03:37;7.97;;;2.38;;
11187;SDS011;5650;52.700;7.306;2022-10-16T11:06:23;5.55;;;1.88;;
11187;SDS011;5650;52.700;7.306;2022-10-16T11:08:59;10.15;;;1.85;;
11187;SDS011;5650;52.700;7.306;2022-10-16T11:11:37;10.68;;;1.75;;
11187;SDS011;5650;52.700;7.306;2022-10-16T11:14:11;8.52;;;2.33;;
11187;SDS011;5650;52.700;7.306;2022-10-16T11:16:45;10.73;;;2.42;;
11187;SDS011;5650;52.700;7.306;2022-10-16T11:19:21;12.48;;;2.05;;
11187;SDS011;5650;52.700;7.306;2022-10-16T11:22:02;9.98;;;2.35;;
11187;SDS011;5650;52.700;7.306;2022-10-16T11:24:45;10.75;;;2.25;;
11187;SDS011;5650;52.700;7.306;2022-10-16T11:27:19;10.77;;;2.28;;
11187;SDS011;5650;52.700;7.306;2022-10-16T11:29:53;10.05;;;2.08;;
11187;SDS011;5650;52.700;7.306;2022-10-16T11:32:45;8.45;;;3.70;;
11187;SDS011;5650;52.700;7.306;2022-10-16T11:35:25;6.63;;;2.70;;
11187;SDS011;5650;52.700;7.306;2022-10-16T11:38:03;6.65;;;2.00;;
11187;SDS011;5650;52.700;7.306;2022-10-16T11:40:38;5.32;;;1.65;;
11187;SDS011;5650;52.700;7.306;2022-10-16T11:43:20;10.23;;;2.17;;
11187;SDS011;5650;52.700;7.306;2022-10-16T11:46:02;13.13;;;2.33;;
11187;SDS011;5650;52.700;7.306;2022-10-16T11:48:47;9.48;;;2.20;;
11187;SDS011;5650;52.700;7.306;2022-10-16T11:51:25;8.45;;;1.90;;
11187;SDS011;5650;52.700;7.306;2022-10-16T11:54:04;7.55;;;1.95;;
11187;SDS011;5650;52.700;7.306;2022-10-16T11:56:40;9.23;;;2.20;;
11187;SDS011;5650;52.700;7.306;2022-10-16T11:59:13;9.82;;;2.13;;
11187;SDS011;5650;52.700;7.306;2022-10-16T12:01:50;9.52;;;2.83;;
11187;SDS011;5650;52.700;7.306;2022-10-16T12:04:23;11.23;;;2.00;;
11187;SDS011;5650;52.700;7.306;2022-10-16T12:06:59;9.55;;;2.17;;
11187;SDS011;5650;52.700;7.306;2022-10-16T12:09:36;6.50;;;2.00;;
11187;SDS011;5650;52.700;7.306;2022-10-16T12:14:59;9.10;;;1.92;;
11187;SDS011;5650;52.700;7.306;2022-10-16T12:17:41;8.40;;;2.33;;
11187;SDS011;5650;52.700;7.306;2022-10-16T12:20:29;7.50;;;1.70;;
11187;SDS011;5650;52.700;7.306;2022-10-16T12:23:04;6.97;;;2.03;;
11187;SDS011;5650;52.700;7.306;2022-10-16T12:25:53;13.15;;;2.15;;
11187;SDS011;5650;52.700;7.306;2022-10-16T12:28:22;8.43;;;2.25;;
11187;SDS011;5650;52.700;7.306;2022-10-16T12:31:13;8.50;;;1.88;;
11187;SDS011;5650;52.700;7.306;2022-10-16T12:33:56;17.00;;;2.03;;
11187;SDS011;5650;52.700;7.306;2022-10-16T12:36:36;5.97;;;2.20;;
11187;SDS011;5650;52.700;7.306;2022-10-16T12:39:03;4.95;;;1.45;;
11187;SDS011;5650;52.700;7.306;2022-10-16T12:41:46;7.88;;;2.00;;
11187;SDS011;5650;52.700;7.306;2022-10-16T12:44:23;6.53;;;1.90;;
11187;SDS011;5650;52.700;7.306;2022-10-16T12:46:54;8.18;;;2.00;;
11187;SDS011;5650;52.700;7.306;2022-10-16T12:49:31;10.75;;;2.33;;
11187;SDS011;5650;52.700;7.306;2022-10-16T12:52:24;10.45;;;2.58;;
11187;SDS011;5650;52.700;7.306;2022-10-16T12:58:13;7.88;;;3.42;;
11187;SDS011;5650;52.700;7.306;2022-10-16T13:01:18;8.00;;;2.60;;
11187;SDS011;5650;52.700;7.306;2022-10-16T13:07:17;6.75;;;1.92;;
11187;SDS011;5650;52.700;7.306;2022-10-16T13:10:00;11.77;;;2.15;;
11187;SDS011;5650;52.700;7.306;2022-10-16T13:12:54;8.55;;;2.83;;
11187;SDS011;5650;52.700;7.306;2022-10-16T13:15:53;11.57;;;2.67;;
11187;SDS011;5650;52.700;7.306;2022-10-16T13:18:48;6.28;;;2.35;;
11187;SDS011;5650;52.700;7.306;2022-10-16T13:27:11;11.98;;;2.53;;
11187;SDS011;5650;52.700;7.306;2022-10-16T13:29:52;9.02;;;2.15;;
11187;SDS011;5650;52.700;7.306;2022-10-16T13:32:46;8.90;;;2.85;;
11187;SDS011;5650;52.700;7.306;2022-10-16T13:35:21;12.60;;;3.58;;
11187;SDS011;5650;52.700;7.306;2022-10-16T13:40:49;18.33;;;3.45;;
11187;SDS011;5650;52.700;7.306;2022-10-16T13:43:20;10.55;;;2.30;;
11187;SDS011;5650;52.700;7.306;2022-10-16T13:46:04;10.93;;;2.63;;
11187;SDS011;5650;52.700;7.306;2022-10-16T13:48:32;11.50;;;2.30;;
11187;SDS011;5650;52.700;7.306;2022-10-16T13:51:04;6.57;;;2.00;;
11187;SDS011;5650;52.700;7.306;2022-10-16T13:53:36;7.90;;;2.17;;
11187;SDS011;5650;52.700;7.306;2022-10-16T13:56:11;8.70;;;2.10;;
11187;SDS011;5650;52.700;7.306;2022-10-16T13:58:58;7.55;;;2.22;;
11187;SDS011;5650;52.700;7.306;2022-10-16T14:01:27;7.53;;;2.00;;
11187;SDS011;5650;52.700;7.306;2022-10-16T14:04:00;7.75;;;2.05;;
11187;SDS011;5650;52.700;7.306;2022-10-16T14:06:32;10.98;;;2.15;;
11187;SDS011;5650;52.700;7.306;2022-10-16T14:09:07;11.93;;;2.50;;
11187;SDS011;5650;52.700;7.306;2022-10-16T14:11:42;8.32;;;2.17;;
11187;SDS011;5650;52.700;7.306;2022-10-16T14:14:17;11.23;;;2.30;;
11187;SDS011;5650;52.700;7.306;2022-10-16T14:16:45;11.77;;;2.55;;
11187;SDS011;5650;52.700;7.306;2022-10-16T14:19:14;7.82;;;2.20;;
11187;SDS011;5650;52.700;7.306;2022-10-16T14:21:46;10.10;;;2.00;;
11187;SDS011;5650;52.700;7.306;2022-10-16T14:24:21;11.40;;;2.28;;
11187;SDS011;5650;52.700;7.306;2022-10-16T14:26:59;9.20;;;2.25;;
11187;SDS011;5650;52.700;7.306;2022-10-16T14:29:32;6.78;;;1.92;;
11187;SDS011;5650;52.700;7.306;2022-10-16T14:32:20;9.20;;;1.92;;
11187;SDS011;5650;52.700;7.306;2022-10-16T14:34:52;7.43;;;2.15;;
11187;SDS011;5650;52.700;7.306;2022-10-16T14:37:28;10.90;;;2.38;;
11187;SDS011;5650;52.700;7.306;2022-10-16T14:39:57;8.38;;;2.33;;
11187;SDS011;5650;52.700;7.306;2022-10-16T14:42:37;8.27;;;2.50;;
11187;SDS011;5650;52.700;7.306;2022-10-16T14:45:11;8.13;;;2.00;;
11187;SDS011;5650;52.700;7.306;2022-10-16T14:47:45;5.72;;;2.13;;
11187;SDS011;5650;52.700;7.306;2022-10-16T14:50:18;12.40;;;2.40;;
11187;SDS011;5650;52.700;7.306;2022-10-16T14:52:48;8.43;;;2.05;;
11187;SDS011;5650;52.700;7.306;2022-10-16T14:55:31;6.75;;;1.88;;
11187;SDS011;5650;52.700;7.306;2022-10-16T14:57:58;14.73;;;2.40;;
11187;SDS011;5650;52.700;7.306;2022-10-16T15:00:32;10.43;;;2.42;;
11187;SDS011;5650;52.700;7.306;2022-10-16T15:02:59;14.45;;;2.28;;
11187;SDS011;5650;52.700;7.306;2022-10-16T15:05:32;9.48;;;2.00;;
11187;SDS011;5650;52.700;7.306;2022-10-16T15:07:59;8.77;;;1.60;;
11187;SDS011;5650;52.700;7.306;2022-10-16T15:10:29;6.68;;;2.10;;
11187;SDS011;5650;52.700;7.306;2022-10-16T15:13:04;7.75;;;1.88;;
11187;SDS011;5650;52.700;7.306;2022-10-16T15:15:33;12.75;;;2.10;;
11187;SDS011;5650;52.700;7.306;2022-10-16T15:18:03;10.10;;;1.92;;
11187;SDS011;5650;52.700;7.306;2022-10-16T15:20:34;11.90;;;2.22;;
11187;SDS011;5650;52.700;7.306;2022-10-16T15:23:03;11.93;;;2.40;;
11187;SDS011;5650;52.700;7.306;2022-10-16T15:25:34;9.60;;;2.30;;
11187;SDS011;5650;52.700;7.306;2022-10-16T15:28:04;8.57;;;2.28;;
11187;SDS011;5650;52.700;7.306;2022-10-16T15:30:39;16.70;;;2.65;;
11187;SDS011;5650;52.700;7.306;2022-10-16T15:33:13;11.43;;;2.35;;
11187;SDS011;5650;52.700;7.306;2022-10-16T15:35:42;11.63;;;2.30;;
11187;SDS011;5650;52.700;7.306;2022-10-16T15:38:13;9.85;;;2.58;;
11187;SDS011;5650;52.700;7.306;2022-10-16T15:40:40;13.20;;;2.65;;
11187;SDS011;5650;52.700;7.306;2022-10-16T15:43:08;11.98;;;2.10;;
11187;SDS011;5650;52.700;7.306;2022-10-16T15:45:37;10.02;;;2.47;;
11187;SDS011;5650;52.700;7.306;2022-10-16T15:48:04;10.38;;;2.40;;
11187;SDS011;5650;52.700;7.306;2022-10-16T15:50:34;6.30;;;1.95;;
11187;SDS011;5650;52.700;7.306;2022-10-16T15:53:07;10.40;;;2.63;;
11187;SDS011;5650;52.700;7.306;2022-10-16T15:55:38;10.35;;;3.65;;
11187;SDS011;5650;52.700;7.306;2022-10-16T15:58:08;12.90;;;3.42;;
11187;SDS011;5650;52.700;7.306;2022-10-16T16:00:36;15.40;;;2.90;;
11187;SDS011;5650;52.700;7.306;2022-10-16T16:03:03;8.93;;;2.38;;
11187;SDS011;5650;52.700;7.306;2022-10-16T16:05:30;8.98;;;2.33;;